createdAt,value
2022-10-17T00:00:49.612Z,75.60
2022-10-17T00:03:17.152Z,75.50
2022-10-17T00:05:46.596Z,75.71
2022-10-17T00:08:15.354Z,75.80
2022-10-17T00:10:42.448Z,75.69
2022-10-17T00:13:09.894Z,75.82
2022-10-17T00:15:37.036Z,75.90
2022-10-17T00:18:04.868Z,76.16
2022-10-17T00:20:34.558Z,76.26
2022-10-17T00:23:01.348Z,76.74
2022-10-17T00:25:28.405Z,76.80
2022-10-17T00:27:55.214Z,76.81
2022-10-17T00:30:22.082Z,76.91
2022-10-17T00:32:49.133Z,77.09
2022-10-17T00:35:16.190Z,77.35
2022-10-17T00:37:42.981Z,77.63
2022-10-17T00:40:10.549Z,77.58
2022-10-17T00:42:38.893Z,77.68
2022-10-17T00:45:08.545Z,77.79
2022-10-17T00:47:36.274Z,77.89
2022-10-17T00:50:04.768Z,78.28
2022-10-17T00:52:32.488Z,78.36
2022-10-17T00:55:08.329Z,78.24
2022-10-17T00:57:35.348Z,78.47
2022-10-17T01:00:06.887Z,78.62
2022-10-17T01:02:35.251Z,78.86
2022-10-17T01:05:02.478Z,78.73
2022-10-17T01:07:33.283Z,78.54
2022-10-17T01:10:05.454Z,78.63
2022-10-17T01:13:00.448Z,78.78
2022-10-17T01:15:40.128Z,78.67
2022-10-17T01:18:25.902Z,79.01
2022-10-17T01:21:05.528Z,79.05
2022-10-17T01:23:41.290Z,78.92
2022-10-17T01:26:24.111Z,79.21
2022-10-17T01:29:30.850Z,79.13
2022-10-17T01:32:06.638Z,79.01
2022-10-17T01:34:45.444Z,78.90
2022-10-17T01:37:28.068Z,78.73
2022-10-17T01:40:07.004Z,78.95
2022-10-17T01:42:46.043Z,79.14
2022-10-17T01:45:19.735Z,79.35
2022-10-17T01:47:49.743Z,79.28
2022-10-17T01:50:28.631Z,79.47
2022-10-17T01:53:01.359Z,79.56
2022-10-17T01:55:33.430Z,79.62
2022-10-17T01:58:35.240Z,79.73
2022-10-17T02:01:06.174Z,80.01
2022-10-17T02:03:34.552Z,80.06
2022-10-17T02:06:02.139Z,80.08
2022-10-17T02:08:41.443Z,80.15
2022-10-17T02:11:29.567Z,79.95
2022-10-17T02:13:56.471Z,79.80
2022-10-17T02:16:29.482Z,79.82
2022-10-17T02:19:18.926Z,79.53
2022-10-17T02:21:59.690Z,79.31
2022-10-17T02:24:51.111Z,79.35
2022-10-17T02:27:30.901Z,79.17
2022-10-17T02:30:30.570Z,79.49
2022-10-17T02:33:15.119Z,79.54
2022-10-17T02:35:49.716Z,79.81
2022-10-17T02:38:18.349Z,79.99
2022-10-17T02:40:46.741Z,80.02
2022-10-17T02:43:15.108Z,79.85
2022-10-17T02:45:42.099Z,80.09
2022-10-17T02:48:26.044Z,79.86
2022-10-17T02:51:04.896Z,80.12
2022-10-17T02:53:44.244Z,80.06
2022-10-17T02:56:22.456Z,80.21
2022-10-17T02:58:55.019Z,80.25
2022-10-17T03:01:22.119Z,80.58
2022-10-17T03:03:48.957Z,80.58
2022-10-17T03:06:15.982Z,80.51
2022-10-17T03:08:42.911Z,80.45
2022-10-17T03:11:09.850Z,80.55
2022-10-17T03:13:39.680Z,80.29
2022-10-17T03:16:07.503Z,80.57
2022-10-17T03:18:34.767Z,80.64
2022-10-17T03:21:03.500Z,80.70
2022-10-17T03:23:30.334Z,81.00
2022-10-17T03:25:57.746Z,80.81
2022-10-17T03:28:24.735Z,81.19
2022-10-17T03:30:51.861Z,81.13
2022-10-17T03:33:18.691Z,80.95
2022-10-17T03:35:45.713Z,80.71
2022-10-17T03:38:13.301Z,80.87
2022-10-17T03:40:40.284Z,80.43
2022-10-17T03:43:07.393Z,80.39
2022-10-17T03:45:34.237Z,80.65
2022-10-17T03:48:01.494Z,80.37
2022-10-17T03:50:29.809Z,80.50
2022-10-17T03:52:58.013Z,80.53
2022-10-17T03:55:24.901Z,80.35
2022-10-17T03:57:51.828Z,80.52
2022-10-17T04:00:20.916Z,80.63
2022-10-17T04:02:54.970Z,80.88
2022-10-17T04:05:22.736Z,80.79
2022-10-17T04:07:49.687Z,80.63
2022-10-17T04:10:21.362Z,80.64
2022-10-17T04:12:48.406Z,80.73
2022-10-17T04:15:15.389Z,80.51
2022-10-17T04:17:42.360Z,80.80
2022-10-17T04:20:09.801Z,80.95
2022-10-17T04:22:38.519Z,81.11
2022-10-17T04:25:05.859Z,80.77
2022-10-17T04:27:35.317Z,81.09
2022-10-17T04:30:02.363Z,80.99
2022-10-17T04:32:32.368Z,80.83
2022-10-17T04:35:08.979Z,80.80
2022-10-17T04:37:36.460Z,80.94
2022-10-17T04:40:10.374Z,81.03
2022-10-17T04:42:39.148Z,81.20
2022-10-17T04:45:07.186Z,80.86
2022-10-17T04:47:35.988Z,80.91
2022-10-17T04:50:04.269Z,81.36
2022-10-17T04:52:37.815Z,81.38
2022-10-17T04:55:06.325Z,81.56
2022-10-17T04:57:37.043Z,81.61
2022-10-17T05:00:16.757Z,81.31
2022-10-17T05:02:54.105Z,81.36
2022-10-17T05:05:21.308Z,81.54
2022-10-17T05:07:51.503Z,81.25
2022-10-17T05:10:20.941Z,81.38
2022-10-17T05:12:50.914Z,81.18
2022-10-17T05:15:20.874Z,81.40
2022-10-17T05:17:48.175Z,81.44
2022-10-17T05:20:15.118Z,81.62
2022-10-17T05:22:42.355Z,81.71
2022-10-17T05:25:11.531Z,81.91
2022-10-17T05:27:39.347Z,81.71
2022-10-17T05:30:07.374Z,81.83
2022-10-17T05:32:36.180Z,81.83
2022-10-17T05:35:04.388Z,81.97
2022-10-17T05:37:32.462Z,81.89
2022-10-17T05:40:00.772Z,81.93
2022-10-17T05:42:30.109Z,81.48
2022-10-17T05:44:58.394Z,81.31
2022-10-17T05:47:26.576Z,81.21
2022-10-17T05:49:53.641Z,81.39
2022-10-17T05:52:26.764Z,81.42
2022-10-17T05:55:15.791Z,81.32
2022-10-17T05:57:42.830Z,81.17
2022-10-17T06:00:14.771Z,81.11
2022-10-17T06:02:42.447Z,81.04
2022-10-17T06:05:11.879Z,80.69
2022-10-17T06:07:38.958Z,80.47
2022-10-17T06:10:07.185Z,80.52
2022-10-17T06:12:34.656Z,80.50
2022-10-17T06:15:01.551Z,80.25
2022-10-17T06:17:30.325Z,80.16
2022-10-17T06:19:59.660Z,80.17
2022-10-17T06:22:26.824Z,79.96
2022-10-17T06:24:56.042Z,79.92
2022-10-17T06:27:27.377Z,79.81
2022-10-17T06:29:54.211Z,79.81
2022-10-17T06:32:21.244Z,79.33
2022-10-17T06:34:48.253Z,79.44
2022-10-17T06:37:15.676Z,79.24
2022-10-17T06:39:43.693Z,79.02
2022-10-17T06:42:17.092Z,78.91
2022-10-17T06:44:53.664Z,79.24
2022-10-17T06:47:37.215Z,79.01
2022-10-17T06:50:16.308Z,78.95
2022-10-17T06:52:53.513Z,78.97
2022-10-17T06:55:39.370Z,78.86
2022-10-17T06:58:15.979Z,78.81
2022-10-17T07:00:51.607Z,78.64
2022-10-17T07:03:18.781Z,78.73
2022-10-17T07:05:52.419Z,78.76
2022-10-17T07:08:24.053Z,78.53
2022-10-17T07:10:51.282Z,78.59
2022-10-17T07:13:19.235Z,78.45
2022-10-17T07:18:32.506Z,77.77
2022-10-17T07:20:59.636Z,77.62
2022-10-17T07:23:27.339Z,77.65
2022-10-17T07:25:59.890Z,77.24
2022-10-17T07:28:27.740Z,77.12
2022-10-17T07:30:56.169Z,76.87
2022-10-17T07:33:23.179Z,76.63
2022-10-17T07:35:52.784Z,76.37
2022-10-17T07:38:19.620Z,76.09
2022-10-17T07:40:46.867Z,76.04
2022-10-17T07:43:13.750Z,76.05
2022-10-17T07:45:41.443Z,76.17
2022-10-17T07:48:08.276Z,76.04
2022-10-17T07:50:35.261Z,75.69
2022-10-17T07:53:02.177Z,75.21
2022-10-17T07:55:29.046Z,74.65
2022-10-17T07:57:57.555Z,74.38
2022-10-17T08:00:24.381Z,74.21
2022-10-17T08:02:51.408Z,74.05
2022-10-17T08:05:18.357Z,73.64
2022-10-17T08:07:45.380Z,72.69
2022-10-17T08:10:14.646Z,72.63
2022-10-17T08:12:42.173Z,72.00
2022-10-17T08:15:10.088Z,71.87
2022-10-17T08:17:38.370Z,70.52
2022-10-17T08:20:06.480Z,70.35
2022-10-17T08:22:33.871Z,70.27
2022-10-17T08:25:00.829Z,69.80
2022-10-17T08:27:28.936Z,69.58
2022-10-17T08:29:55.931Z,69.05
2022-10-17T08:32:26.294Z,68.79
2022-10-17T08:34:54.315Z,68.38
2022-10-17T08:37:22.500Z,67.94
2022-10-17T08:39:50.442Z,66.43
2022-10-17T08:42:23.624Z,66.05
2022-10-17T08:45:08.812Z,65.05
2022-10-17T08:47:42.439Z,64.03
2022-10-17T08:50:29.513Z,64.30
2022-10-17T08:53:03.354Z,64.12
2022-10-17T08:55:41.313Z,62.60
2022-10-17T08:58:33.420Z,62.35
2022-10-17T09:01:30.459Z,62.39
2022-10-17T09:04:00.468Z,61.43
2022-10-17T09:07:06.068Z,61.50
2022-10-17T09:09:58.743Z,61.16
2022-10-17T09:12:46.847Z,60.01
2022-10-17T09:15:29.186Z,59.49
2022-10-17T09:18:21.119Z,58.75
2022-10-17T09:20:57.980Z,58.44
2022-10-17T09:23:59.535Z,58.04
2022-10-17T09:26:36.995Z,56.57
2022-10-17T09:29:15.984Z,54.54
2022-10-17T09:31:49.483Z,54.13
2022-10-17T09:34:16.652Z,54.38
2022-10-17T09:36:44.114Z,53.35
2022-10-17T09:39:18.847Z,52.22
2022-10-17T09:41:57.555Z,52.19
2022-10-17T09:44:54.614Z,52.22
2022-10-17T09:47:41.383Z,51.76
2022-10-17T09:50:32.695Z,50.48
2022-10-17T09:53:16.013Z,50.22
2022-10-17T09:55:50.662Z,49.72
2022-10-17T09:58:17.700Z,48.32
2022-10-17T10:00:47.428Z,48.42
2022-10-17T10:03:25.277Z,46.49
2022-10-17T10:06:20.316Z,46.87
2022-10-17T10:08:55.547Z,46.12
2022-10-17T10:11:48.822Z,45.87
2022-10-17T10:14:34.049Z,45.23
2022-10-17T10:17:03.096Z,43.16
2022-10-17T10:19:31.198Z,43.21
2022-10-17T10:22:04.102Z,43.29
2022-10-17T10:24:32.179Z,41.49
2022-10-17T10:27:02.527Z,39.95
2022-10-17T10:29:41.554Z,38.96
2022-10-17T10:35:01.108Z,38.58
2022-10-17T10:37:38.680Z,38.48
2022-10-17T10:40:22.505Z,38.13
2022-10-17T10:42:52.637Z,39.25
2022-10-17T10:45:47.539Z,39.90
2022-10-17T10:48:10.958Z,40.52
2022-10-17T10:50:45.629Z,40.09
2022-10-17T10:53:35.363Z,40.18
2022-10-17T10:56:05.722Z,39.88
2022-10-17T10:59:07.831Z,39.46
2022-10-17T11:02:02.368Z,38.71
2022-10-17T11:04:44.608Z,37.83
2022-10-17T11:07:14.540Z,37.12
2022-10-17T11:09:50.521Z,36.96
2022-10-17T11:12:41.142Z,37.59
2022-10-17T11:15:14.597Z,37.68
2022-10-17T11:18:03.090Z,37.27
2022-10-17T11:20:34.313Z,38.00
2022-10-17T11:23:30.534Z,38.27
2022-10-17T11:26:02.721Z,37.40
2022-10-17T11:28:29.963Z,37.81
2022-10-17T11:31:05.722Z,37.54
2022-10-17T11:33:49.921Z,37.18
2022-10-17T11:36:20.313Z,37.06
2022-10-17T11:38:56.540Z,37.15
2022-10-17T11:41:31.831Z,37.47
2022-10-17T11:44:04.764Z,36.88
2022-10-17T11:46:36.148Z,36.64
2022-10-17T11:49:20.731Z,36.41
2022-10-17T11:52:51.287Z,36.18
2022-10-17T11:55:28.667Z,36.25
2022-10-17T11:58:23.013Z,36.14
2022-10-17T12:01:05.142Z,35.87
2022-10-17T12:03:32.111Z,37.11
2022-10-17T12:06:34.358Z,36.82
2022-10-17T12:09:01.465Z,36.31
2022-10-17T12:11:43.997Z,36.16
2022-10-17T12:14:46.878Z,36.80
2022-10-17T12:17:39.247Z,37.38
2022-10-17T12:20:24.344Z,36.13
2022-10-17T12:23:03.488Z,36.36
2022-10-17T12:25:35.692Z,35.68
2022-10-17T12:28:13.208Z,34.79
2022-10-17T12:30:52.664Z,34.89
2022-10-17T12:33:26.794Z,35.63
2022-10-17T12:36:18.529Z,36.04
2022-10-17T12:38:50.047Z,35.69
2022-10-17T12:41:37.668Z,35.74
2022-10-17T12:44:14.189Z,36.36
2022-10-17T12:46:43.983Z,35.72
2022-10-17T12:49:21.238Z,35.44
2022-10-17T12:52:17.548Z,35.51
2022-10-17T12:55:00.140Z,35.53
2022-10-17T12:57:59.362Z,35.60
2022-10-17T13:00:29.394Z,35.31
2022-10-17T13:03:05.190Z,35.43
2022-10-17T13:05:34.967Z,35.43
2022-10-17T13:08:06.106Z,36.00
2022-10-17T13:10:40.692Z,35.95
2022-10-17T13:13:19.188Z,36.11
2022-10-17T13:15:52.214Z,35.08
2022-10-17T13:18:22.449Z,34.89
2022-10-17T13:21:07.023Z,34.64
2022-10-17T13:23:37.451Z,34.69
2022-10-17T13:26:16.130Z,35.46
2022-10-17T13:28:44.410Z,34.76
2022-10-17T13:31:34.325Z,34.89
2022-10-17T13:34:03.715Z,35.05
2022-10-17T13:36:31.473Z,34.37
2022-10-17T13:39:12.196Z,34.32
2022-10-17T13:41:42.058Z,33.01
2022-10-17T13:44:18.059Z,34.56
2022-10-17T13:46:45.457Z,35.45
2022-10-17T13:49:39.418Z,35.19
2022-10-17T13:52:14.483Z,35.37
2022-10-17T13:54:47.363Z,35.52
2022-10-17T13:57:20.956Z,35.82
2022-10-17T13:59:52.274Z,36.37
2022-10-17T14:02:30.839Z,36.79
2022-10-17T14:05:20.195Z,36.86
2022-10-17T14:08:15.231Z,37.02
2022-10-17T14:10:45.257Z,37.03
2022-10-17T14:13:36.022Z,37.13
2022-10-17T14:16:04.141Z,37.75
2022-10-17T14:18:36.579Z,38.06
2022-10-17T14:24:13.137Z,38.08
2022-10-17T14:27:01.484Z,38.36
2022-10-17T14:29:50.451Z,38.56
2022-10-17T14:32:18.531Z,38.65
2022-10-17T14:34:46.879Z,38.70
2022-10-17T14:37:46.544Z,39.10
2022-10-17T14:40:26.486Z,39.55
2022-10-17T14:42:57.440Z,39.63
2022-10-17T14:45:28.597Z,40.08
2022-10-17T14:48:01.966Z,40.30
2022-10-17T14:50:32.050Z,40.79
2022-10-17T14:53:25.328Z,40.84
2022-10-17T14:55:58.262Z,40.75
2022-10-17T14:58:27.970Z,41.08
2022-10-17T15:00:56.519Z,41.21
2022-10-17T15:03:23.859Z,41.16
2022-10-17T15:05:52.376Z,41.35
2022-10-17T15:08:21.662Z,41.80
2022-10-17T15:10:51.115Z,41.66
2022-10-17T15:13:39.942Z,42.54
2022-10-17T15:16:21.398Z,42.67
2022-10-17T15:18:49.071Z,43.01
2022-10-17T15:21:26.198Z,43.40
2022-10-17T15:24:01.846Z,43.43
2022-10-17T15:26:33.532Z,43.20
2022-10-17T15:29:01.720Z,43.60
2022-10-17T15:31:31.751Z,43.84
2022-10-17T15:33:58.811Z,44.15
2022-10-17T15:36:28.800Z,44.40
2022-10-17T15:38:58.187Z,44.58
2022-10-17T15:41:26.246Z,45.10
2022-10-17T15:43:53.130Z,45.05
2022-10-17T15:46:30.477Z,45.16
2022-10-17T15:49:01.321Z,45.51
2022-10-17T15:51:28.358Z,46.06
2022-10-17T15:53:55.279Z,46.50
2022-10-17T15:56:24.329Z,46.36
2022-10-17T15:58:51.227Z,46.63
2022-10-17T16:01:23.003Z,46.90
2022-10-17T16:03:50.725Z,46.89
2022-10-17T16:06:21.226Z,46.88
2022-10-17T16:08:48.677Z,46.86
2022-10-17T16:11:21.881Z,47.22
2022-10-17T16:13:54.040Z,47.19
2022-10-17T16:16:22.582Z,47.60
2022-10-17T16:18:49.587Z,47.95
2022-10-17T16:21:18.261Z,48.04
2022-10-17T16:23:45.255Z,48.01
2022-10-17T16:26:16.252Z,47.83
2022-10-17T16:28:46.186Z,47.79
2022-10-17T16:31:21.740Z,47.99
2022-10-17T16:33:49.455Z,48.07
2022-10-17T16:36:16.343Z,48.46
2022-10-17T16:38:43.754Z,48.87
2022-10-17T16:41:17.053Z,49.71
2022-10-17T16:43:43.882Z,50.04
2022-10-17T16:46:10.668Z,50.49
2022-10-17T16:48:37.605Z,50.88
2022-10-17T16:51:04.443Z,51.66
2022-10-17T16:53:31.249Z,52.33
2022-10-17T16:56:01.283Z,52.38
2022-10-17T16:58:30.953Z,52.17
2022-10-17T17:01:01.986Z,52.69
2022-10-17T17:03:28.894Z,53.47
2022-10-17T17:05:55.789Z,54.24
2022-10-17T17:08:22.711Z,54.78
2022-10-17T17:10:51.038Z,54.82
2022-10-17T17:13:18.269Z,55.22
2022-10-17T17:18:14.216Z,55.40
2022-10-17T17:20:41.740Z,55.69
2022-10-17T17:23:13.680Z,55.83
2022-10-17T17:25:42.578Z,56.14
2022-10-17T17:28:09.414Z,56.50
2022-10-17T17:30:36.144Z,57.09
2022-10-17T17:33:03.094Z,57.33
2022-10-17T17:35:30.614Z,57.66
2022-10-17T17:37:57.653Z,57.87
2022-10-17T17:40:24.633Z,58.17
2022-10-17T17:42:51.505Z,58.36
2022-10-17T17:45:18.301Z,58.72
2022-10-17T17:47:45.119Z,58.81
2022-10-17T17:50:12.048Z,59.05
2022-10-17T17:52:41.911Z,59.51
2022-10-17T17:55:09.194Z,59.42
2022-10-17T17:57:36.084Z,59.99
2022-10-17T18:00:03.129Z,59.94
2022-10-17T18:02:31.637Z,60.01
2022-10-17T18:04:58.620Z,60.42
2022-10-17T18:07:25.392Z,61.70
2022-10-17T18:09:52.254Z,61.09
2022-10-17T18:12:19.383Z,61.08
2022-10-17T18:14:49.016Z,61.21
2022-10-17T18:17:15.998Z,61.36
2022-10-17T18:19:42.788Z,60.94
2022-10-17T18:22:09.877Z,60.75
2022-10-17T18:24:36.910Z,60.04
2022-10-17T18:27:03.714Z,59.64
2022-10-17T18:29:31.175Z,59.32
2022-10-17T18:31:59.093Z,59.04
2022-10-17T18:34:27.255Z,59.21
2022-10-17T18:36:54.499Z,59.61
2022-10-17T18:39:21.613Z,59.26
2022-10-17T18:41:48.295Z,58.55
2022-10-17T18:44:16.004Z,59.05
2022-10-17T18:47:03.927Z,59.16
2022-10-17T18:49:49.882Z,59.42
2022-10-17T18:52:35.152Z,59.68
2022-10-17T18:55:21.027Z,59.76
2022-10-17T18:58:06.127Z,59.68
2022-10-17T19:00:51.955Z,59.97
2022-10-17T19:03:37.624Z,59.59
2022-10-17T19:06:25.788Z,59.77
2022-10-17T19:09:11.975Z,59.74
2022-10-17T19:11:57.420Z,59.87
2022-10-17T19:14:42.936Z,59.28
2022-10-17T19:17:28.337Z,59.26
2022-10-17T19:20:13.864Z,59.02
2022-10-17T19:22:59.101Z,59.07
2022-10-17T19:25:44.519Z,58.99
2022-10-17T19:28:29.880Z,58.52
2022-10-17T19:31:17.720Z,57.86
2022-10-17T19:34:04.122Z,57.83
2022-10-17T19:36:49.799Z,57.14
2022-10-17T19:39:35.538Z,56.46
2022-10-17T19:42:21.153Z,56.38
2022-10-17T19:45:06.768Z,57.49
2022-10-17T19:47:52.421Z,57.69
2022-10-17T19:50:40.602Z,58.72
2022-10-17T19:53:29.901Z,58.06
2022-10-17T19:56:18.598Z,57.83
2022-10-17T19:59:05.064Z,57.48
2022-10-17T20:01:50.577Z,57.87
2022-10-17T20:04:37.550Z,58.13
2022-10-17T20:07:27.431Z,58.27
2022-10-17T20:10:12.691Z,58.62
2022-10-17T20:12:58.009Z,59.11
2022-10-17T20:16:00.954Z,59.01
2022-10-17T20:18:46.407Z,59.15
2022-10-17T20:21:34.918Z,59.27
2022-10-17T20:24:20.076Z,60.13
2022-10-17T20:27:05.659Z,60.40
2022-10-17T20:29:51.017Z,60.84
2022-10-17T20:32:39.981Z,60.62
2022-10-17T20:35:25.399Z,60.40
2022-10-17T20:38:11.737Z,60.13
2022-10-17T20:41:00.131Z,60.06
2022-10-17T20:43:45.704Z,59.80
2022-10-17T20:46:44.403Z,59.84
2022-10-17T20:49:34.286Z,59.63
2022-10-17T20:52:19.475Z,59.55
2022-10-17T20:55:05.121Z,59.57
2022-10-17T20:57:52.560Z,60.08
2022-10-17T21:00:41.919Z,60.38
2022-10-17T21:03:27.468Z,60.51
2022-10-17T21:06:13.113Z,60.43
2022-10-17T21:08:58.299Z,60.30
2022-10-17T21:11:44.107Z,60.62
2022-10-17T21:14:29.979Z,60.51
2022-10-17T21:17:15.765Z,60.68
2022-10-17T21:20:01.194Z,61.39
2022-10-17T21:22:46.883Z,61.69
2022-10-17T21:25:32.269Z,61.36
2022-10-17T21:28:17.734Z,61.20
2022-10-17T21:31:32.172Z,61.73
2022-10-17T21:34:20.099Z,62.10
2022-10-17T21:37:05.667Z,62.16
2022-10-17T21:39:51.266Z,62.09
2022-10-17T21:42:36.400Z,62.12
2022-10-17T21:45:25.786Z,61.97
2022-10-17T21:48:12.848Z,62.27
2022-10-17T21:51:03.452Z,61.90
2022-10-17T21:53:49.562Z,62.38
2022-10-17T21:56:36.335Z,62.74
2022-10-17T21:59:03.815Z,62.77
2022-10-17T22:01:32.226Z,63.34
2022-10-17T22:03:59.842Z,63.67
2022-10-17T22:06:43.254Z,63.93
2022-10-17T22:09:12.872Z,64.59
2022-10-17T22:11:39.779Z,65.01
2022-10-17T22:14:07.863Z,65.00
2022-10-17T22:16:35.126Z,65.17
2022-10-17T22:19:06.086Z,65.37
2022-10-17T22:21:34.483Z,65.55
2022-10-17T22:24:02.169Z,65.86
2022-10-17T22:26:29.586Z,66.12
2022-10-17T22:28:56.607Z,66.25
2022-10-17T22:31:23.691Z,66.27
2022-10-17T22:33:50.847Z,66.31
2022-10-17T22:36:17.572Z,66.64
2022-10-17T22:38:44.547Z,67.02
2022-10-17T22:41:11.548Z,67.07
2022-10-17T22:43:38.475Z,67.54
2022-10-17T22:46:06.128Z,67.76
2022-10-17T22:48:33.062Z,67.69
2022-10-17T22:51:00.146Z,67.73
2022-10-17T22:53:27.194Z,67.88
2022-10-17T22:55:54.733Z,68.04
2022-10-17T22:58:21.961Z,68.00
2022-10-17T23:00:49.358Z,68.25
2022-10-17T23:03:16.496Z,68.60
2022-10-17T23:05:43.679Z,68.96
2022-10-17T23:08:10.961Z,68.99
2022-10-17T23:10:37.951Z,69.13
2022-10-17T23:13:04.898Z,69.90
2022-10-17T23:15:32.163Z,69.95
2022-10-17T23:17:59.566Z,70.13
2022-10-17T23:20:26.450Z,70.09
2022-10-17T23:22:53.397Z,69.87
2022-10-17T23:25:20.115Z,70.29
2022-10-17T23:27:47.167Z,70.58
2022-10-17T23:30:14.127Z,70.81
2022-10-17T23:32:41.207Z,70.77
2022-10-17T23:35:08.566Z,70.69
2022-10-17T23:37:35.575Z,70.92
2022-10-17T23:40:02.855Z,71.15
2022-10-17T23:42:30.023Z,71.41
2022-10-17T23:44:56.702Z,71.40
2022-10-17T23:47:23.580Z,71.57
2022-10-17T23:49:50.317Z,71.69
2022-10-17T23:52:17.062Z,71.66
2022-10-17T23:54:43.717Z,71.82
2022-10-17T23:57:10.449Z,71.82
2022-10-17T23:59:37.394Z,71.79
